Wetterdaten: Woche 18.10.10 - 24.10.10 (KW42)
Datum Zeit Temp. Innen Temp. Aussen UV X Diff Temp. Feuchte Inne Feuchte Auss Sonnenschein Luftdruck Regen ab 0,1 Wind Sonnenschein T Regendauer Windben
18.10.2010 00:00 15,6 C 7,0 C 0,0 UV-I 0,0 C 55 % 91 % 0 % 1021,6 hPa 0,0 l/m 0,0 km/h (0 Bft) 0,00 h 0,17 h 0,0 km/h (0 Bft)
18.10.2010 01:00 15,6 C 6,9 C 0,0 UV-I 0,0 C 55 % 91 % 0 % 1021,6 hPa 0,0 l/m 0,0 km/h (0 Bft) 0,00 h 0,07 h 0,0 km/h (0 Bft)
18.10.2010 02:00 15,7 C 6,8 C 0,0 UV-I 0,0 C 55 % 92 % 0 % 1021,4 hPa 0,0 l/m 0,0 km/h (0 Bft) 0,00 h 0,03 h 0,0 km/h (0 Bft)
18.10.2010 03:00 15,6 C 6,8 C 0,0 UV-I 0,0 C 55 % 92 % 0 % 1021,2 hPa 0,0 l/m 0,0 km/h (0 Bft) 0,00 h 0,07 h 0,0 km/h (0 Bft)
18.10.2010 04:00 15,6 C 6,7 C 0,0 UV-I 0,0 C 55 % 92 % 0 % 1020,9 hPa 0,0 l/m 0,0 km/h (0 Bft) 0,00 h 0,10 h 0,0 km/h (0 Bft)
18.10.2010 05:00 15,6 C 6,6 C 0,0 UV-I 0,0 C 55 % 92 % 0 % 1020,9 hPa 0,0 l/m 0,0 km/h (0 Bft) 0,00 h 0,03 h 0,0 km/h (0 Bft)
18.10.2010 06:00 15,6 C 6,7 C 0,0 UV-I 0,0 C 55 % 92 % 0 % 1020,8 hPa 0,0 l/m 0,0 km/h (0 Bft) 0,00 h 0,17 h 0,0 km/h (0 Bft)
18.10.2010 07:00 15,4 C 6,6 C 0,0 UV-I 0,0 C 56 % 93 % 0 % 1020,4 hPa 0,0 l/m 0,0 km/h (0 Bft) 0,00 h 0,00 h 0,0 km/h (0 Bft)
18.10.2010 08:00 15,2 C 6,6 C 0,0 UV-I 0,0 C 56 % 93 % 0 % 1020,6 hPa 0,0 l/m 0,1 km/h (0 Bft) 0,00 h 0,07 h 0,2 km/h (0 Bft)
18.10.2010 09:00 15,2 C 6,9 C 0,4 UV-I 0,2 C 55 % 92 % 6 % 1021,0 hPa 0,0 l/m 0,0 km/h (0 Bft) 0,00 h 0,00 h 0,5 km/h (0 Bft)
18.10.2010 10:00 15,2 C 7,8 C 2,1 UV-I 1,7 C 54 % 88 % 43 % 1021,1 hPa 0,0 l/m 0,1 km/h (0 Bft) 0,17 h 0,00 h 1,4 km/h (1 Bft)
18.10.2010 11:00 15,2 C 9,3 C 3,2 UV-I 7,3 C 51 % 75 % 100 % 1020,6 hPa 0,0 l/m 1,6 km/h (1 Bft) 1,00 h 0,00 h 3,9 km/h (1 Bft)
18.10.2010 12:00 15,4 C 10,5 C 4,7 UV-I 7,4 C 49 % 68 % 100 % 1020,0 hPa 0,0 l/m 3,5 km/h (1 Bft) 1,00 h 0,00 h 6,3 km/h (2 Bft)
18.10.2010 13:00 16,4 C 11,3 C 4,9 UV-I 6,8 C 48 % 64 % 100 % 1020,4 hPa 0,0 l/m 3,9 km/h (1 Bft) 1,00 h 0,00 h 6,2 km/h (2 Bft)
18.10.2010 14:00 17,7 C 12,2 C 4,6 UV-I 6,3 C 44 % 62 % 100 % 1021,9 hPa 0,0 l/m 3,8 km/h (1 Bft) 1,00 h 0,00 h 6,9 km/h (2 Bft)
18.10.2010 15:00 18,9 C 12,5 C 3,6 UV-I 4,9 C 42 % 61 % 100 % 1021,4 hPa 0,0 l/m 3,1 km/h (1 Bft) 1,00 h 0,00 h 6,1 km/h (2 Bft)
18.10.2010 16:00 19,4 C 12,2 C 2,1 UV-I 3,0 C 41 % 63 % 80 % 1020,2 hPa 0,0 l/m 2,5 km/h (1 Bft) 0,80 h 0,00 h 4,6 km/h (1 Bft)
18.10.2010 17:00 19,0 C 11,0 C 1,0 UV-I 0,4 C 42 % 68 % 12 % 1018,2 hPa 0,0 l/m 1,9 km/h (1 Bft) 0,00 h 0,00 h 4,0 km/h (1 Bft)
18.10.2010 18:00 18,0 C 9,8 C 0,3 UV-I 0,0 C 43 % 72 % 0 % 1017,8 hPa 0,0 l/m 1,4 km/h (1 Bft) 0,00 h 0,00 h 3,3 km/h (1 Bft)
18.10.2010 19:00 16,9 C 9,1 C 0,1 UV-I 0,0 C 46 % 76 % 0 % 1016,1 hPa 0,0 l/m 2,1 km/h (1 Bft) 0,00 h 0,00 h 5,9 km/h (2 Bft)
18.10.2010 20:00 16,3 C 9,2 C 0,0 UV-I 0,0 C 48 % 76 % 0 % 1015,6 hPa 0,0 l/m 2,6 km/h (1 Bft) 0,00 h 0,00 h 5,4 km/h (1 Bft)
18.10.2010 21:00 16,0 C 9,0 C 0,0 UV-I 0,0 C 49 % 77 % 0 % 1014,8 hPa 0,2 l/m 3,2 km/h (1 Bft) 0,00 h 0,80 h 6,3 km/h (2 Bft)
18.10.2010 22:00 15,7 C 8,7 C 0,0 UV-I 0,0 C 51 % 81 % 0 % 1013,9 hPa 0,0 l/m 4,8 km/h (1 Bft) 0,00 h 0,13 h 7,4 km/h (2 Bft)
18.10.2010 23:00 15,4 C 9,1 C 0,1 UV-I 0,0 C 51 % 80 % 0 % 1013,2 hPa 0,0 l/m 8,0 km/h (2 Bft) 0,00 h 0,10 h 13,4 km/h (3 Bft)
19.10.2010 00:00 15,2 C 9,0 C 0,0 UV-I 0,0 C 52 % 81 % 0 % 1012,1 hPa 0,0 l/m 5,0 km/h (1 Bft) 0,00 h 0,03 h 6,7 km/h (2 Bft)
19.10.2010 01:00 15,0 C 8,9 C 0,0 UV-I 0,0 C 53 % 82 % 0 % 1010,9 hPa 0,0 l/m 6,4 km/h (2 Bft) 0,00 h 0,17 h 9,7 km/h (2 Bft)
19.10.2010 02:00 14,9 C 8,7 C 0,0 UV-I 0,0 C 54 % 83 % 0 % 1009,9 hPa 0,0 l/m 6,5 km/h (2 Bft) 0,00 h 0,00 h 8,6 km/h (2 Bft)
19.10.2010 03:00 14,8 C 8,7 C 0,0 UV-I 0,0 C 55 % 83 % 0 % 1008,6 hPa 0,0 l/m 6,9 km/h (2 Bft) 0,00 h 0,10 h 11,6 km/h (2 Bft)
19.10.2010 04:00 14,7 C 8,8 C 0,0 UV-I 0,0 C 56 % 84 % 0 % 1007,1 hPa 0,0 l/m 7,1 km/h (2 Bft) 0,00 h 0,03 h 11,0 km/h (2 Bft)
19.10.2010 05:00 14,6 C 9,0 C 0,0 UV-I 0,0 C 56 % 84 % 0 % 1006,5 hPa 0,0 l/m 6,0 km/h (2 Bft) 0,00 h 0,03 h 10,2 km/h (2 Bft)
19.10.2010 06:00 14,6 C 9,1 C 0,0 UV-I 0,0 C 57 % 85 % 0 % 1005,6 hPa 0,0 l/m 7,2 km/h (2 Bft) 0,00 h 0,13 h 8,4 km/h (2 Bft)
19.10.2010 07:00 14,6 C 9,3 C 0,0 UV-I 0,0 C 58 % 86 % 0 % 1005,1 hPa 0,0 l/m 4,5 km/h (1 Bft) 0,00 h 0,07 h 7,2 km/h (2 Bft)
19.10.2010 08:00 14,6 C 9,3 C 1,3 UV-I 0,0 C 60 % 88 % 0 % 1004,4 hPa 1,5 l/m 5,2 km/h (1 Bft) 0,00 h 0,83 h 7,6 km/h (2 Bft)
19.10.2010 09:00 14,7 C 8,7 C 1,5 UV-I 0,0 C 62 % 91 % 0 % 1004,6 hPa 0,3 l/m 2,8 km/h (1 Bft) 0,00 h 0,23 h 4,9 km/h (1 Bft)
19.10.2010 10:00 14,8 C 8,6 C 3,5 UV-I 0,1 C 62 % 92 % 2 % 1005,1 hPa 0,3 l/m 1,6 km/h (1 Bft) 0,00 h 0,57 h 3,3 km/h (1 Bft)
19.10.2010 11:00 14,9 C 8,7 C 3,8 UV-I 1,3 C 62 % 92 % 30 % 1004,8 hPa 0,1 l/m 2,2 km/h (1 Bft) 0,23 h 0,37 h 5,4 km/h (1 Bft)
19.10.2010 12:00 15,3 C 10,4 C 3,7 UV-I 4,7 C 61 % 89 % 100 % 1004,6 hPa 0,0 l/m 4,4 km/h (1 Bft) 1,00 h 0,00 h 7,6 km/h (2 Bft)
19.10.2010 13:00 16,3 C 12,2 C 4,5 UV-I 5,7 C 60 % 82 % 99 % 1004,8 hPa 0,0 l/m 6,1 km/h (2 Bft) 0,97 h 0,00 h 8,4 km/h (2 Bft)
19.10.2010 14:00 17,5 C 13,5 C 4,2 UV-I 5,7 C 55 % 71 % 99 % 1006,0 hPa 0,0 l/m 7,7 km/h (2 Bft) 1,00 h 0,00 h 11,7 km/h (2 Bft)
19.10.2010 15:00 18,3 C 12,0 C 1,8 UV-I 1,4 C 51 % 74 % 31 % 1008,8 hPa 0,4 l/m 5,2 km/h (1 Bft) 0,20 h 0,23 h 9,0 km/h (2 Bft)
19.10.2010 16:00 18,0 C 10,8 C 1,5 UV-I 0,9 C 52 % 81 % 26 % 1003,9 hPa 0,0 l/m 2,8 km/h (1 Bft) 0,07 h 0,00 h 5,6 km/h (1 Bft)
19.10.2010 17:00 17,4 C 10,3 C 0,9 UV-I 0,0 C 52 % 81 % 0 % 1003,3 hPa 0,0 l/m 4,0 km/h (1 Bft) 0,00 h 0,00 h 6,6 km/h (2 Bft)
19.10.2010 18:00 16,7 C 9,4 C 0,2 UV-I 0,0 C 54 % 84 % 0 % 1003,5 hPa 1,2 l/m 5,0 km/h (1 Bft) 0,00 h 0,77 h 7,8 km/h (2 Bft)
19.10.2010 19:00 16,0 C 8,3 C 0,0 UV-I 0,0 C 56 % 89 % 0 % 1003,2 hPa 0,1 l/m 3,1 km/h (1 Bft) 0,00 h 0,10 h 5,5 km/h (1 Bft)
19.10.2010 20:00 15,6 C 7,9 C 0,0 UV-I 0,0 C 57 % 90 % 0 % 1003,0 hPa 0,0 l/m 0,6 km/h (0 Bft) 0,00 h 0,00 h 1,2 km/h (1 Bft)
19.10.2010 21:00 15,3 C 7,4 C 0,0 UV-I 0,0 C 58 % 91 % 0 % 1002,9 hPa 0,0 l/m 0,2 km/h (0 Bft) 0,00 h 0,00 h 1,1 km/h (1 Bft)
19.10.2010 22:00 15,1 C 7,6 C 0,0 UV-I 0,0 C 58 % 91 % 0 % 1002,8 hPa 0,0 l/m 0,7 km/h (0 Bft) 0,00 h 0,00 h 1,9 km/h (1 Bft)
19.10.2010 23:00 15,0 C 7,7 C 0,0 UV-I 0,0 C 58 % 91 % 0 % 1002,6 hPa 0,0 l/m 1,2 km/h (1 Bft) 0,00 h 0,30 h 3,5 km/h (1 Bft)
20.10.2010 00:00 15,0 C 7,6 C 0,0 UV-I 0,0 C 58 % 91 % 0 % 1002,3 hPa 0,0 l/m 2,8 km/h (1 Bft) 0,00 h 0,07 h 6,0 km/h (2 Bft)
20.10.2010 01:00 14,8 C 7,5 C 0,0 UV-I 0,0 C 58 % 91 % 0 % 1002,0 hPa 0,0 l/m 3,4 km/h (1 Bft) 0,00 h 0,00 h 5,2 km/h (1 Bft)
20.10.2010 02:00 14,7 C 7,4 C 0,0 UV-I 0,0 C 58 % 92 % 0 % 1002,1 hPa 0,1 l/m 2,8 km/h (1 Bft) 0,00 h 0,37 h 5,9 km/h (2 Bft)
20.10.2010 03:00 14,6 C 7,3 C 0,0 UV-I 0,0 C 59 % 92 % 0 % 1002,1 hPa 0,1 l/m 2,7 km/h (1 Bft) 0,00 h 0,63 h 4,7 km/h (1 Bft)
20.10.2010 04:00 14,6 C 6,9 C 0,0 UV-I 0,0 C 59 % 92 % 0 % 1002,2 hPa 0,1 l/m 3,1 km/h (1 Bft) 0,00 h 0,20 h 5,0 km/h (1 Bft)
20.10.2010 05:00 14,4 C 6,6 C 0,0 UV-I 0,0 C 58 % 92 % 0 % 1002,7 hPa 0,0 l/m 2,0 km/h (1 Bft) 0,00 h 0,00 h 4,1 km/h (1 Bft)
20.10.2010 06:00 14,3 C 6,5 C 0,0 UV-I 0,0 C 58 % 93 % 0 % 1003,4 hPa 0,0 l/m 2,8 km/h (1 Bft) 0,00 h 0,10 h 5,0 km/h (1 Bft)
20.10.2010 07:00 14,3 C 6,8 C 0,0 UV-I 0,0 C 59 % 93 % 0 % 1003,8 hPa 0,0 l/m 3,9 km/h (1 Bft) 0,00 h 0,27 h 7,2 km/h (2 Bft)
20.10.2010 08:00 14,3 C 6,8 C 1,1 UV-I 0,0 C 59 % 92 % 0 % 1006,1 hPa 2,8 l/m 5,2 km/h (1 Bft) 0,00 h 0,95 h 8,6 km/h (2 Bft)
20.10.2010 09:00 14,7 C 6,5 C 1,3 UV-I 0,0 C 59 % 92 % 0 % 1008,5 hPa 0,9 l/m 2,0 km/h (1 Bft) 0,00 h 0,60 h 4,4 km/h (1 Bft)
20.10.2010 10:00 15,0 C 7,0 C 2,7 UV-I 0,3 C 59 % 93 % 8 % 1009,9 hPa 0,0 l/m 2,2 km/h (1 Bft) 0,00 h 0,07 h 5,7 km/h (1 Bft)
20.10.2010 11:00 15,2 C 7,8 C 3,0 UV-I 2,0 C 59 % 92 % 51 % 1010,8 hPa 0,0 l/m 4,2 km/h (1 Bft) 0,43 h 0,00 h 7,4 km/h (2 Bft)
20.10.2010 12:00 15,5 C 9,4 C 3,3 UV-I 4,1 C 58 % 86 % 94 % 1011,6 hPa 0,0 l/m 6,9 km/h (2 Bft) 0,87 h 0,00 h 10,2 km/h (2 Bft)
20.10.2010 13:00 16,2 C 10,5 C 4,1 UV-I 4,4 C 56 % 76 % 94 % 1012,3 hPa 0,0 l/m 7,2 km/h (2 Bft) 0,90 h 0,00 h 10,4 km/h (2 Bft)
20.10.2010 14:00 17,4 C 11,2 C 3,4 UV-I 4,1 C 49 % 65 % 90 % 1014,1 hPa 0,1 l/m 9,5 km/h (2 Bft) 0,80 h 0,13 h 15,5 km/h (3 Bft)
20.10.2010 15:00 17,6 C 8,6 C 2,0 UV-I 0,8 C 48 % 75 % 23 % 1011,5 hPa 0,1 l/m 6,1 km/h (2 Bft) 0,13 h 0,10 h 10,3 km/h (2 Bft)
20.10.2010 16:00 17,7 C 8,5 C 1,7 UV-I 2,1 C 47 % 75 % 56 % 1012,7 hPa 0,1 l/m 7,3 km/h (2 Bft) 0,50 h 0,17 h 12,3 km/h (3 Bft)
20.10.2010 17:00 17,1 C 6,8 C 0,7 UV-I 0,0 C 45 % 79 % 0 % 1012,6 hPa 0,0 l/m 4,3 km/h (1 Bft) 0,00 h 0,10 h 6,2 km/h (2 Bft)
20.10.2010 18:00 15,9 C 5,8 C 0,3 UV-I 0,0 C 47 % 83 % 0 % 1012,8 hPa 0,0 l/m 2,3 km/h (1 Bft) 0,00 h 0,00 h 4,6 km/h (1 Bft)
20.10.2010 19:00 15,0 C 5,2 C 0,1 UV-I 0,0 C 50 % 87 % 0 % 1013,5 hPa 0,0 l/m 2,6 km/h (1 Bft) 0,00 h 0,00 h 5,0 km/h (1 Bft)
20.10.2010 20:00 14,8 C 5,2 C 0,0 UV-I 0,0 C 52 % 89 % 0 % 1014,7 hPa 0,0 l/m 4,1 km/h (1 Bft) 0,00 h 0,00 h 8,1 km/h (2 Bft)
20.10.2010 21:00 14,7 C 4,9 C 0,0 UV-I 0,0 C 52 % 90 % 0 % 1015,4 hPa 0,0 l/m 3,1 km/h (1 Bft) 0,00 h 0,00 h 5,7 km/h (1 Bft)
20.10.2010 22:00 14,6 C 4,5 C 0,0 UV-I 0,0 C 53 % 90 % 0 % 1016,4 hPa 0,0 l/m 2,7 km/h (1 Bft) 0,00 h 0,00 h 5,3 km/h (1 Bft)
20.10.2010 23:00 14,6 C 4,2 C 0,0 UV-I 0,0 C 53 % 91 % 0 % 1016,9 hPa 0,0 l/m 2,0 km/h (1 Bft) 0,00 h 0,03 h 4,7 km/h (1 Bft)
21.10.2010 00:00 14,4 C 4,3 C 0,1 UV-I 0,0 C 53 % 91 % 0 % 1017,5 hPa 0,0 l/m 3,3 km/h (1 Bft) 0,00 h 0,00 h 6,4 km/h (2 Bft)
21.10.2010 01:00 14,3 C 4,1 C 0,1 UV-I 0,0 C 53 % 91 % 0 % 1018,0 hPa 0,0 l/m 2,2 km/h (1 Bft) 0,00 h 0,03 h 5,4 km/h (1 Bft)
21.10.2010 02:00 14,4 C 3,9 C 0,0 UV-I 0,0 C 53 % 92 % 0 % 1018,6 hPa 0,0 l/m 1,6 km/h (1 Bft) 0,00 h 0,00 h 3,8 km/h (1 Bft)
21.10.2010 03:00 14,3 C 4,0 C 0,0 UV-I 0,0 C 53 % 92 % 0 % 1018,6 hPa 0,0 l/m 3,0 km/h (1 Bft) 0,00 h 0,03 h 6,4 km/h (2 Bft)
21.10.2010 04:00 13,9 C 4,0 C 0,0 UV-I 0,0 C 52 % 92 % 0 % 1018,9 hPa 0,1 l/m 4,7 km/h (1 Bft) 0,00 h 0,07 h 7,6 km/h (2 Bft)
21.10.2010 05:00 13,3 C 3,9 C 0,0 UV-I 0,0 C 53 % 92 % 0 % 1018,9 hPa 0,0 l/m 4,1 km/h (1 Bft) 0,00 h 0,03 h 7,7 km/h (2 Bft)
21.10.2010 06:00 13,0 C 3,7 C 0,0 UV-I 0,0 C 53 % 92 % 0 % 1019,2 hPa 0,0 l/m 2,3 km/h (1 Bft) 0,00 h 0,20 h 4,9 km/h (1 Bft)
21.10.2010 07:00 12,9 C 4,0 C 0,0 UV-I 0,0 C 53 % 92 % 0 % 1019,5 hPa 0,0 l/m 3,5 km/h (1 Bft) 0,00 h 0,10 h 7,5 km/h (2 Bft)
21.10.2010 08:00 12,6 C 4,0 C 0,5 UV-I 0,0 C 53 % 91 % 0 % 1019,5 hPa 0,0 l/m 4,1 km/h (1 Bft) 0,00 h 0,10 h 8,8 km/h (2 Bft)
21.10.2010 09:00 12,4 C 4,3 C 1,2 UV-I 1,9 C 53 % 89 % 42 % 1019,6 hPa 0,0 l/m 4,6 km/h (1 Bft) 0,43 h 0,00 h 8,2 km/h (2 Bft)
21.10.2010 10:00 12,4 C 5,8 C 2,8 UV-I 6,0 C 52 % 83 % 100 % 1020,2 hPa 0,0 l/m 6,1 km/h (2 Bft) 1,00 h 0,00 h 9,3 km/h (2 Bft)
21.10.2010 11:00 12,5 C 7,1 C 4,6 UV-I 4,3 C 51 % 77 % 94 % 1020,7 hPa 0,0 l/m 8,0 km/h (2 Bft) 0,90 h 0,00 h 9,7 km/h (2 Bft)
21.10.2010 12:00 12,8 C 8,8 C 6,2 UV-I 6,0 C 51 % 70 % 100 % 1020,9 hPa 0,0 l/m 10,1 km/h (2 Bft) 1,00 h 0,00 h 14,6 km/h (3 Bft)
21.10.2010 13:00 13,9 C 10,0 C 4,4 UV-I 5,7 C 50 % 65 % 100 % 1021,8 hPa 0,0 l/m 10,1 km/h (2 Bft) 1,00 h 0,00 h 15,1 km/h (3 Bft)
21.10.2010 14:00 15,5 C 10,7 C 3,7 UV-I 5,2 C 45 % 59 % 100 % 1024,4 hPa 0,0 l/m 9,4 km/h (2 Bft) 1,00 h 0,00 h 11,3 km/h (2 Bft)
21.10.2010 15:00 16,5 C 10,8 C 3,0 UV-I 4,0 C 39 % 51 % 97 % 1023,5 hPa 0,0 l/m 8,6 km/h (2 Bft) 1,00 h 0,00 h 11,1 km/h (2 Bft)
21.10.2010 16:00 16,7 C 10,5 C 2,0 UV-I 3,8 C 37 % 50 % 98 % 1023,1 hPa 0,0 l/m 7,3 km/h (2 Bft) 1,00 h 0,00 h 11,4 km/h (2 Bft)
21.10.2010 17:00 16,7 C 9,1 C 1,1 UV-I 1,4 C 38 % 56 % 38 % 1021,5 hPa 0,0 l/m 5,2 km/h (1 Bft) 0,40 h 0,00 h 7,4 km/h (2 Bft)
21.10.2010 18:00 15,9 C 8,0 C 0,2 UV-I 0,0 C 40 % 63 % 0 % 1020,4 hPa 0,0 l/m 1,2 km/h (1 Bft) 0,00 h 0,00 h 2,4 km/h (1 Bft)
21.10.2010 19:00 15,0 C 7,1 C 0,1 UV-I 0,0 C 43 % 68 % 0 % 1020,1 hPa 0,0 l/m 2,0 km/h (1 Bft) 0,00 h 0,00 h 3,6 km/h (1 Bft)
21.10.2010 20:00 14,6 C 6,4 C 0,0 UV-I 0,0 C 45 % 72 % 0 % 1020,3 hPa 0,0 l/m 2,4 km/h (1 Bft) 0,00 h 0,00 h 4,9 km/h (1 Bft)
21.10.2010 21:00 14,3 C 5,9 C 0,0 UV-I 0,0 C 45 % 73 % 0 % 1020,1 hPa 0,0 l/m 3,2 km/h (1 Bft) 0,00 h 0,00 h 5,9 km/h (2 Bft)
21.10.2010 22:00 14,2 C 5,4 C 0,0 UV-I 0,0 C 46 % 74 % 0 % 1020,3 hPa 0,0 l/m 3,9 km/h (1 Bft) 0,00 h 0,00 h 7,5 km/h (2 Bft)
21.10.2010 23:00 14,2 C 5,3 C 0,0 UV-I 0,0 C 46 % 73 % 0 % 1020,3 hPa 0,0 l/m 5,2 km/h (1 Bft) 0,00 h 0,00 h 9,1 km/h (2 Bft)
22.10.2010 00:00 13,9 C 5,3 C 0,0 UV-I 0,0 C 45 % 72 % 0 % 1019,8 hPa 0,0 l/m 5,3 km/h (1 Bft) 0,00 h 0,00 h 8,3 km/h (2 Bft)
22.10.2010 01:00 14,0 C 5,2 C 0,0 UV-I 0,0 C 45 % 72 % 0 % 1019,2 hPa 0,0 l/m 4,7 km/h (1 Bft) 0,00 h 0,00 h 8,0 km/h (2 Bft)
22.10.2010 02:00 13,9 C 5,0 C 0,0 UV-I 0,0 C 45 % 71 % 0 % 1018,8 hPa 0,0 l/m 4,5 km/h (1 Bft) 0,00 h 0,00 h 7,7 km/h (2 Bft)
22.10.2010 03:00 13,9 C 5,2 C 0,0 UV-I 0,0 C 45 % 72 % 0 % 1018,4 hPa 0,0 l/m 5,1 km/h (1 Bft) 0,00 h 0,00 h 8,7 km/h (2 Bft)
22.10.2010 04:00 13,9 C 5,9 C 0,0 UV-I 0,0 C 45 % 71 % 0 % 1017,6 hPa 0,0 l/m 6,4 km/h (2 Bft) 0,00 h 0,00 h 10,7 km/h (2 Bft)
22.10.2010 05:00 14,0 C 6,0 C 0,0 UV-I 0,0 C 45 % 71 % 0 % 1017,2 hPa 0,0 l/m 4,7 km/h (1 Bft) 0,00 h 0,00 h 7,7 km/h (2 Bft)
22.10.2010 06:00 14,0 C 6,0 C 0,0 UV-I 0,0 C 46 % 72 % 0 % 1017,3 hPa 0,0 l/m 4,6 km/h (1 Bft) 0,00 h 0,00 h 7,2 km/h (2 Bft)
22.10.2010 07:00 13,9 C 6,3 C 0,0 UV-I 0,0 C 46 % 73 % 0 % 1017,3 hPa 0,0 l/m 3,5 km/h (1 Bft) 0,00 h 0,00 h 5,8 km/h (2 Bft)
22.10.2010 08:00 13,9 C 6,3 C 1,5 UV-I 0,0 C 46 % 73 % 0 % 1017,5 hPa 0,0 l/m 5,1 km/h (1 Bft) 0,00 h 0,00 h 7,8 km/h (2 Bft)
22.10.2010 09:00 14,0 C 6,7 C 2,4 UV-I 0,1 C 47 % 74 % 4 % 1017,7 hPa 0,0 l/m 4,0 km/h (1 Bft) 0,00 h 0,00 h 6,2 km/h (2 Bft)
22.10.2010 10:00 14,2 C 7,5 C 3,7 UV-I 2,3 C 47 % 74 % 64 % 1017,9 hPa 0,0 l/m 4,7 km/h (1 Bft) 0,47 h 0,00 h 7,3 km/h (2 Bft)
22.10.2010 11:00 14,4 C 8,6 C 5,6 UV-I 4,0 C 48 % 74 % 94 % 1018,2 hPa 0,0 l/m 5,7 km/h (1 Bft) 0,97 h 0,00 h 8,5 km/h (2 Bft)
22.10.2010 12:00 14,8 C 9,6 C 2,6 UV-I 3,2 C 48 % 72 % 77 % 1018,2 hPa 0,0 l/m 5,3 km/h (1 Bft) 0,43 h 0,00 h 6,6 km/h (2 Bft)
22.10.2010 13:00 15,2 C 9,7 C 3,1 UV-I 2,0 C 48 % 72 % 58 % 1018,1 hPa 0,0 l/m 4,3 km/h (1 Bft) 0,33 h 0,00 h 6,2 km/h (2 Bft)
22.10.2010 14:00 15,4 C 9,8 C 2,6 UV-I 1,2 C 48 % 73 % 35 % 1017,6 hPa 0,0 l/m 4,5 km/h (1 Bft) 0,00 h 0,00 h 6,9 km/h (2 Bft)
22.10.2010 15:00 15,8 C 10,2 C 2,4 UV-I 1,9 C 48 % 72 % 53 % 1017,5 hPa 0,0 l/m 4,5 km/h (1 Bft) 0,20 h 0,00 h 6,3 km/h (2 Bft)
22.10.2010 16:00 16,5 C 10,6 C 1,8 UV-I 2,0 C 48 % 72 % 58 % 1018,1 hPa 0,0 l/m 3,4 km/h (1 Bft) 0,30 h 0,00 h 6,0 km/h (2 Bft)
22.10.2010 17:00 16,7 C 10,1 C 1,0 UV-I 1,3 C 47 % 74 % 36 % 1017,1 hPa 0,0 l/m 2,6 km/h (1 Bft) 0,40 h 0,00 h 4,9 km/h (1 Bft)
22.10.2010 18:00 16,0 C 9,2 C 0,2 UV-I 0,0 C 47 % 75 % 0 % 1016,6 hPa 0,0 l/m 1,8 km/h (1 Bft) 0,00 h 0,00 h 5,0 km/h (1 Bft)
22.10.2010 19:00 15,4 C 8,1 C 0,1 UV-I 0,0 C 49 % 77 % 0 % 1016,4 hPa 0,0 l/m 2,7 km/h (1 Bft) 0,00 h 0,00 h 5,9 km/h (2 Bft)
22.10.2010 20:00 15,0 C 7,4 C 0,1 UV-I 0,0 C 49 % 78 % 0 % 1016,3 hPa 0,0 l/m 2,9 km/h (1 Bft) 0,00 h 0,00 h 4,8 km/h (1 Bft)
22.10.2010 21:00 14,8 C 6,8 C 0,0 UV-I 0,0 C 49 % 79 % 0 % 1016,0 hPa 0,0 l/m 1,0 km/h (0 Bft) 0,00 h 0,00 h 2,3 km/h (1 Bft)
22.10.2010 22:00 14,8 C 6,4 C 0,0 UV-I 0,0 C 49 % 80 % 0 % 1015,6 hPa 0,0 l/m 1,0 km/h (0 Bft) 0,00 h 0,00 h 2,5 km/h (1 Bft)
22.10.2010 23:00 14,8 C 6,3 C 0,0 UV-I 0,0 C 49 % 79 % 0 % 1015,3 hPa 0,0 l/m 1,1 km/h (1 Bft) 0,00 h 0,00 h 2,5 km/h (1 Bft)
23.10.2010 00:00 14,8 C 6,4 C 0,0 UV-I 0,0 C 49 % 78 % 0 % 1014,6 hPa 0,0 l/m 0,8 km/h (0 Bft) 0,00 h 0,00 h 1,8 km/h (1 Bft)
23.10.2010 01:00 14,7 C 5,4 C 0,0 UV-I 0,0 C 49 % 80 % 0 % 1014,2 hPa 0,0 l/m 0,5 km/h (0 Bft) 0,00 h 0,00 h 1,2 km/h (1 Bft)
23.10.2010 02:00 14,7 C 4,4 C 0,0 UV-I 0,0 C 49 % 84 % 0 % 1013,3 hPa 0,0 l/m 1,4 km/h (1 Bft) 0,00 h 0,00 h 3,7 km/h (1 Bft)
23.10.2010 03:00 14,6 C 4,2 C 0,0 UV-I 0,0 C 50 % 86 % 0 % 1012,6 hPa 0,0 l/m 1,7 km/h (1 Bft) 0,00 h 0,00 h 4,1 km/h (1 Bft)
23.10.2010 04:00 14,4 C 3,7 C 0,0 UV-I 0,0 C 50 % 87 % 0 % 1011,8 hPa 0,0 l/m 2,5 km/h (1 Bft) 0,00 h 0,00 h 4,6 km/h (1 Bft)
23.10.2010 05:00 14,4 C 3,1 C 0,0 UV-I 0,0 C 49 % 87 % 0 % 1011,2 hPa 0,0 l/m 1,8 km/h (1 Bft) 0,00 h 0,00 h 2,3 km/h (1 Bft)
23.10.2010 06:00 14,3 C 2,5 C 0,0 UV-I 0,0 C 49 % 88 % 0 % 1010,6 hPa 0,0 l/m 1,5 km/h (1 Bft) 0,00 h 0,00 h 4,0 km/h (1 Bft)
23.10.2010 07:00 14,2 C 2,1 C 0,0 UV-I 0,0 C 49 % 89 % 0 % 1009,9 hPa 0,0 l/m 1,6 km/h (1 Bft) 0,00 h 0,00 h 3,1 km/h (1 Bft)
23.10.2010 08:00 14,1 C 1,6 C 0,4 UV-I 0,0 C 49 % 89 % 0 % 1009,2 hPa 0,0 l/m 2,3 km/h (1 Bft) 0,00 h 0,23 h 5,1 km/h (1 Bft)
23.10.2010 09:00 14,0 C 2,7 C 1,4 UV-I 1,0 C 48 % 88 % 28 % 1008,2 hPa 0,0 l/m 6,1 km/h (2 Bft) 0,33 h 0,00 h 9,7 km/h (2 Bft)
23.10.2010 10:00 14,2 C 5,1 C 2,7 UV-I 1,4 C 48 % 80 % 40 % 1007,2 hPa 0,0 l/m 6,7 km/h (2 Bft) 0,00 h 0,00 h 11,3 km/h (2 Bft)
23.10.2010 11:00 14,4 C 6,2 C 4,2 UV-I 0,9 C 47 % 77 % 25 % 1006,2 hPa 0,0 l/m 5,9 km/h (2 Bft) 0,00 h 0,00 h 8,8 km/h (2 Bft)
23.10.2010 12:00 14,7 C 8,2 C 3,8 UV-I 2,1 C 47 % 73 % 59 % 1005,5 hPa 0,0 l/m 6,1 km/h (2 Bft) 0,07 h 0,00 h 8,9 km/h (2 Bft)
23.10.2010 13:00 14,8 C 9,4 C 0,0 UV-I 0,6 C 46 % 63 % 17 % 1004,1 hPa 0,0 l/m 5,9 km/h (2 Bft) 0,00 h 0,07 h 11,3 km/h (2 Bft)
23.10.2010 14:00 14,8 C 9,6 C 0,0 UV-I 0,0 C 46 % 63 % 0 % 1002,5 hPa 0,0 l/m 7,9 km/h (2 Bft) 0,00 h 0,33 h 11,3 km/h (2 Bft)
23.10.2010 15:00 14,8 C 9,5 C 0,0 UV-I 0,0 C 47 % 67 % 0 % 1001,5 hPa 0,3 l/m 7,7 km/h (2 Bft) 0,00 h 0,93 h 11,5 km/h (2 Bft)
23.10.2010 16:00 14,7 C 8,0 C 0,2 UV-I 0,0 C 50 % 81 % 0 % 1001,1 hPa 1,1 l/m 8,6 km/h (2 Bft) 0,00 h 1,00 h 12,8 km/h (3 Bft)
23.10.2010 17:00 14,5 C 7,7 C 0,1 UV-I 0,0 C 53 % 86 % 0 % 1000,5 hPa 0,0 l/m 8,0 km/h (2 Bft) 0,00 h 0,23 h 12,4 km/h (3 Bft)
23.10.2010 18:00 14,4 C 8,2 C 0,0 UV-I 0,0 C 53 % 83 % 0 % 1000,1 hPa 0,0 l/m 10,5 km/h (2 Bft) 0,00 h 0,00 h 14,3 km/h (3 Bft)
23.10.2010 19:00 14,4 C 8,1 C 0,0 UV-I 0,0 C 53 % 83 % 0 % 1000,4 hPa 0,0 l/m 7,1 km/h (2 Bft) 0,00 h 0,00 h 11,0 km/h (2 Bft)
23.10.2010 20:00 14,4 C 8,2 C 0,1 UV-I 0,0 C 54 % 84 % 0 % 999,6 hPa 0,0 l/m 7,6 km/h (2 Bft) 0,00 h 0,00 h 11,1 km/h (2 Bft)
23.10.2010 21:00 14,3 C 8,4 C 0,0 UV-I 0,0 C 55 % 86 % 0 % 999,0 hPa 0,0 l/m 6,1 km/h (2 Bft) 0,00 h 0,23 h 8,9 km/h (2 Bft)
23.10.2010 22:00 14,4 C 8,2 C 0,0 UV-I 0,0 C 56 % 88 % 0 % 998,8 hPa 0,4 l/m 6,9 km/h (2 Bft) 0,00 h 0,63 h 10,3 km/h (2 Bft)
23.10.2010 23:00 14,3 C 8,3 C 0,0 UV-I 0,0 C 57 % 89 % 0 % 998,9 hPa 0,0 l/m 6,9 km/h (2 Bft) 0,00 h 0,00 h 10,0 km/h (2 Bft)
24.10.2010 00:00 14,3 C 8,4 C 0,0 UV-I 0,0 C 57 % 88 % 0 % 999,4 hPa 0,0 l/m 7,1 km/h (2 Bft) 0,00 h 0,00 h 10,8 km/h (2 Bft)
24.10.2010 01:00 14,3 C 8,5 C 0,0 UV-I 0,0 C 57 % 87 % 0 % 999,8 hPa 0,0 l/m 8,2 km/h (2 Bft) 0,00 h 0,00 h 11,3 km/h (2 Bft)
24.10.2010 02:00 14,3 C 8,4 C 0,0 UV-I 0,0 C 57 % 87 % 0 % 1000,4 hPa 0,0 l/m 8,6 km/h (2 Bft) 0,00 h 0,20 h 12,6 km/h (3 Bft)
24.10.2010 03:00 14,3 C 8,2 C 0,0 UV-I 0,0 C 57 % 88 % 0 % 1001,1 hPa 0,0 l/m 7,2 km/h (2 Bft) 0,00 h 0,30 h 9,7 km/h (2 Bft)
24.10.2010 04:00 14,4 C 7,9 C 0,0 UV-I 0,0 C 57 % 89 % 0 % 1001,5 hPa 0,1 l/m 6,0 km/h (2 Bft) 0,00 h 0,03 h 9,5 km/h (2 Bft)
24.10.2010 05:00 14,3 C 7,7 C 0,0 UV-I 0,0 C 57 % 89 % 0 % 1002,0 hPa 0,0 l/m 5,3 km/h (1 Bft) 0,00 h 0,00 h 8,1 km/h (2 Bft)
24.10.2010 06:00 14,4 C 7,4 C 0,0 UV-I 0,0 C 57 % 89 % 0 % 1002,8 hPa 0,0 l/m 7,4 km/h (2 Bft) 0,00 h 0,03 h 10,1 km/h (2 Bft)
24.10.2010 07:00 14,3 C 7,2 C 0,0 UV-I 0,0 C 57 % 89 % 0 % 1004,3 hPa 0,0 l/m 8,0 km/h (2 Bft) 0,00 h 0,00 h 10,6 km/h (2 Bft)
24.10.2010 08:00 14,3 C 7,0 C 0,6 UV-I 0,0 C 57 % 89 % 0 % 1006,2 hPa 0,1 l/m 5,5 km/h (1 Bft) 0,00 h 0,57 h 9,0 km/h (2 Bft)
24.10.2010 09:00 14,4 C 7,1 C 2,0 UV-I 0,1 C 57 % 89 % 2 % 1007,0 hPa 0,0 l/m 6,0 km/h (2 Bft) 0,00 h 0,07 h 9,6 km/h (2 Bft)
24.10.2010 10:00 14,4 C 7,9 C 5,0 UV-I 2,9 C 56 % 86 % 71 % 1007,9 hPa 0,0 l/m 7,7 km/h (2 Bft) 0,50 h 0,00 h 11,1 km/h (2 Bft)
24.10.2010 11:00 14,5 C 9,2 C 5,6 UV-I 6,1 C 56 % 82 % 100 % 1008,5 hPa 0,0 l/m 7,7 km/h (2 Bft) 1,00 h 0,00 h 10,8 km/h (2 Bft)
24.10.2010 12:00 14,8 C 11,0 C 9,0 UV-I 6,0 C 56 % 75 % 100 % 1008,9 hPa 0,0 l/m 8,2 km/h (2 Bft) 1,00 h 0,00 h 10,3 km/h (2 Bft)
24.10.2010 13:00 15,4 C 11,6 C 3,1 UV-I 3,6 C 55 % 71 % 90 % 1009,3 hPa 0,0 l/m 6,9 km/h (2 Bft) 0,77 h 0,00 h 11,3 km/h (2 Bft)
24.10.2010 14:00 17,1 C 13,0 C 2,9 UV-I 6,3 C 51 % 64 % 100 % 1012,7 hPa 0,0 l/m 7,7 km/h (2 Bft) 1,00 h 0,00 h 11,4 km/h (2 Bft)
24.10.2010 15:00 18,1 C 10,1 C 1,4 UV-I 1,1 C 47 % 73 % 28 % 1012,3 hPa 1,9 l/m 7,3 km/h (2 Bft) 0,20 h 0,53 h 8,4 km/h (2 Bft)
24.10.2010 16:00 17,9 C 8,9 C 1,5 UV-I 1,2 C 48 % 82 % 33 % 1011,2 hPa 0,0 l/m 3,3 km/h (1 Bft) 0,23 h 0,17 h 5,8 km/h (2 Bft)
24.10.2010 17:00 17,3 C 8,0 C 0,7 UV-I 0,0 C 49 % 83 % 0 % 1011,9 hPa 0,0 l/m 0,7 km/h (0 Bft) 0,00 h 0,13 h 0,9 km/h (0 Bft)
24.10.2010 18:00 16,4 C 7,2 C 0,1 UV-I 0,0 C 50 % 84 % 0 % 1012,4 hPa 0,0 l/m 0,3 km/h (0 Bft) 0,00 h 0,00 h 0,6 km/h (0 Bft)
24.10.2010 19:00 15,7 C 6,3 C 0,1 UV-I 0,0 C 52 % 86 % 0 % 1013,4 hPa 0,0 l/m 0,2 km/h (0 Bft) 0,00 h 0,03 h 0,2 km/h (0 Bft)
24.10.2010 20:00 15,4 C 5,9 C 0,1 UV-I 0,0 C 53 % 88 % 0 % 1013,9 hPa 0,0 l/m 0,7 km/h (0 Bft) 0,00 h 0,00 h 2,3 km/h (1 Bft)
24.10.2010 21:00 15,2 C 5,2 C 0,1 UV-I 0,0 C 53 % 89 % 0 % 1014,6 hPa 0,0 l/m 0,0 km/h (0 Bft) 0,00 h 0,03 h 0,3 km/h (0 Bft)
24.10.2010 22:00 15,1 C 4,6 C 0,0 UV-I 0,0 C 53 % 90 % 0 % 1015,3 hPa 0,0 l/m 0,0 km/h (0 Bft) 0,00 h 0,00 h 0,0 km/h (0 Bft)
24.10.2010 23:00 15,0 C 3,8 C 0,0 UV-I 0,0 C 53 % 90 % 0 % 1015,8 hPa 0,0 l/m 0,0 km/h (0 Bft) 0,00 h 0,03 h 0,0 km/h (0 Bft)
Min-Datum _ 21.10.10 23.10.10 18.10.10 18.10.10 21.10.10 21.10.10 18.10.10 23.10.10 - 18.10.10 - - 18.10.10
_ Min-Zeit 09:02 08:30 00:00 00:00 15:58 15:58 00:00 22:36 - 00:00 - - 00:00
Minimum _ 12,3 C 1,5 C 0,0 UV-I 0,0 C 37 % 48 % 0 % 998,6 hPa - 0,0 km/h (0 Bft) - - 0,0 km/h (0 Bft)
Max-Datum _ 18.10.10 19.10.10 24.10.10 18.10.10 19.10.10 20.10.10 18.10.10 21.10.10 20.10.10 20.10.10 18.10.10 18.10.10 20.10.10
_ Max-Zeit 16:24 14:56 12:20 11:16 09:02 10:34 10:52 14:16 08:49 16:52 10:50 00:04 16:46
Maximum _ 19,5 C 14,3 C 18,1 UV-I 8,4 C 62 % 94 % 100 % 1024,8 hPa 2,8 l/m 14,9 km/h
S (3 Bft)
0,03 h 0,03 h 39,3 km/h
S (6 Bft)
Durchschnitt _ 15,1 C 7,6 C 1,1 UV-I 1,0 C 52 % 81 % 20 % 1012,3 hPa #12,3 l/m 4,1 km/h (1 Bft) #29:00 h #15:53 h 6,7 km/h (2 Bft)
© 2012 W. Hausmann